Pagrindinis puslapis
METAR-TAF:

METAR-TAF

Oro uostai :

Trondheimas, Norvegija

platuma: 63-28N, ilguma: 010-56E, Aukštis: 1 m

Dabartinis oras

Ataskaita buvo paskelbta 12 minutes, ne 04:20 UTC
Vėjas 2 kt nuo kintamojo kryptimis
Temperatūra 11°C
Drėgmė 87%
Slėgis 1017 hPa
Matomumas 10 km arba daugiau
Mažai debesys ne aukštis 800 ft
Su prošvaistėmis ne aukštis 1700 ft
Apsiniaukę ne aukštis 2100 ft
dulksna

METAR: ENVA 250420Z VRB02KT 9999 DZ FEW008 BKN017 OVC021 11/09 Q1017 RMK WIND 670FT 31003KT

Laikas: 06:32 (04:32 UTC)

Prognozė

Prognozė galioja nuo 25 metu 00 UTC su 25 metu 24 UTC
Vėjas 8 kt iš Vakarų/Šiaurės Vakarų
Matomumas 10 km arba daugiau
Mažai debesys ne aukštis 2000 ft
Su prošvaistėmis ne aukštis 4000 ft
Tikimybė 40%
nuo 25 metu 00 UTC su 25 metu 06 UTC
Matomumas: 4000 m
Su prošvaistėmis ne aukštis 1200 ft
lietus, dulksna, rūkana

TAF: ENVA 2500/2524 30008KT 9999 FEW020 BKN040 PROB40 2500/2506 4000 RADZ BR BKN012

Orai ataskaitas ir orų prognozės (METAR, TAF).

turimą stotys yra geltonos ir raudonos taškus žemėlapyje.

Perkelti pele per norėdami pamatyti stoties vardą.

Tada spustelėkite, norėdami matyti oro stebėjimo ir prognozės.

Norėdami pakeisti žemėlapį: spustelėkite ant žalios mygtukų su juodo kryžiaus žemyn,; žalią mygtuką su brūkšneliu, jei norite nutolinti; arba žalių rodyklių gretimoms žemėlapius.


METAR-TAF: